createdAt,value
2022-09-15T00:50:52.053Z,3.75
2022-09-15T00:54:31.575Z,3.22
2022-09-15T00:58:18.385Z,4.30
2022-09-15T01:50:18.847Z,4.20
2022-09-15T01:53:11.932Z,3.38
2022-09-15T01:56:08.166Z,3.63
2022-09-15T01:58:53.184Z,2.53
2022-09-15T02:50:46.068Z,1.70
2022-09-15T02:53:31.175Z,3.10
2022-09-15T02:56:18.059Z,3.25
2022-09-15T02:59:03.309Z,2.58
2022-09-15T03:47:39.658Z,3.05
2022-09-15T03:50:25.034Z,3.00
2022-09-15T03:53:09.988Z,3.33
2022-09-15T03:55:54.884Z,2.90
2022-09-15T03:58:40.089Z,4.15
2022-09-15T04:05:53.468Z,3.08
2022-09-15T04:09:55.197Z,3.03
2022-09-15T04:12:57.409Z,2.73
2022-09-15T04:32:07.395Z,2.72
2022-09-15T04:34:53.533Z,2.35
2022-09-15T04:37:39.888Z,2.83
2022-09-15T04:40:25.749Z,3.28
2022-09-15T04:43:12.417Z,2.30
2022-09-15T04:45:58.580Z,2.13
2022-09-15T04:49:33.844Z,8.88
2022-09-15T04:52:22.596Z,9.85
2022-09-15T05:04:06.503Z,7.75
2022-09-15T05:07:02.260Z,9.25
2022-09-15T05:09:51.403Z,10.27
2022-09-15T05:12:37.443Z,8.60
2022-09-15T05:15:29.287Z,9.07
2022-09-15T05:18:21.196Z,6.97
2022-09-15T05:24:37.596Z,7.63
2022-09-15T05:27:24.714Z,8.30
2022-09-15T05:30:35.818Z,7.20
2022-09-15T05:33:16.778Z,4.00
2022-09-15T05:50:16.556Z,8.87
2022-09-15T05:53:13.631Z,8.73
2022-09-15T05:56:00.998Z,8.65
2022-09-15T05:58:50.042Z,5.68
2022-09-15T06:01:35.811Z,5.30
2022-09-15T06:04:21.308Z,6.97
2022-09-15T06:07:08.915Z,7.13
2022-09-15T06:10:15.091Z,7.28
2022-09-15T06:13:01.883Z,6.03
2022-09-15T06:15:48.242Z,6.25
2022-09-15T06:18:46.611Z,7.10
2022-09-15T06:21:35.394Z,6.70
2022-09-15T06:24:22.146Z,4.00
2022-09-15T06:27:07.881Z,5.25
2022-09-15T06:32:53.025Z,4.30
2022-09-15T06:35:42.999Z,6.00
2022-09-15T06:38:29.971Z,4.78
2022-09-15T06:41:19.249Z,4.80
2022-09-15T06:44:04.769Z,5.50
2022-09-15T06:46:55.307Z,4.27
2022-09-15T06:52:56.606Z,4.15
2022-09-15T06:55:42.623Z,4.60
2022-09-15T06:58:52.985Z,4.65
2022-09-15T07:01:42.783Z,3.40
2022-09-15T07:04:28.332Z,3.90
2022-09-15T07:07:13.849Z,3.40
2022-09-15T07:10:00.109Z,4.13
2022-09-15T07:12:46.454Z,4.28
2022-09-15T07:15:32.091Z,3.77
2022-09-15T07:18:18.125Z,3.67
2022-09-15T07:21:13.623Z,3.78
2022-09-15T07:24:03.865Z,4.45
2022-09-15T07:26:55.566Z,4.10
2022-09-15T07:29:41.277Z,4.00
2022-09-15T07:32:26.966Z,3.72
2022-09-15T07:35:15.324Z,5.07
2022-09-15T07:38:04.233Z,4.50
2022-09-15T07:40:49.517Z,5.20
2022-09-15T07:43:34.970Z,3.50
2022-09-15T07:46:22.000Z,3.00
2022-09-15T07:49:08.341Z,3.85
2022-09-15T07:51:58.268Z,5.93
2022-09-15T07:54:46.658Z,4.00
2022-09-15T07:57:31.957Z,4.00
2022-09-15T08:00:17.691Z,2.80
2022-09-15T08:03:11.060Z,3.13
2022-09-15T08:06:03.741Z,4.65
2022-09-15T08:08:55.057Z,3.13
2022-09-15T08:11:42.205Z,3.73
2022-09-15T08:14:27.234Z,3.17
2022-09-15T08:17:18.095Z,4.57
2022-09-15T08:20:04.465Z,5.32
2022-09-15T08:22:50.412Z,2.65
2022-09-15T08:25:35.773Z,3.07
2022-09-15T08:28:21.356Z,3.17
2022-09-15T08:31:08.913Z,3.70
2022-09-15T08:33:55.623Z,3.03
2022-09-15T08:36:49.207Z,3.42
2022-09-15T08:40:14.166Z,4.27
2022-09-15T08:46:44.945Z,3.25
2022-09-15T08:49:57.953Z,4.38
2022-09-15T08:52:50.957Z,3.63
2022-09-15T08:56:09.321Z,3.33
2022-09-15T08:58:55.908Z,3.58
2022-09-15T09:02:19.397Z,3.25
2022-09-15T09:05:30.217Z,3.83
2022-09-15T09:08:56.530Z,3.83
2022-09-15T09:11:41.862Z,2.57
2022-09-15T09:14:47.015Z,3.63
2022-09-15T09:18:05.805Z,3.00
2022-09-15T09:21:28.719Z,2.88
2022-09-15T09:24:24.653Z,2.97
2022-09-15T09:27:44.711Z,3.17
2022-09-15T09:30:35.631Z,3.60
2022-09-15T09:33:34.798Z,2.95
2022-09-15T09:36:21.494Z,2.53
2022-09-15T09:39:23.185Z,2.90
2022-09-15T09:42:22.341Z,3.20
2022-09-15T09:45:33.306Z,2.85
2022-09-15T09:48:23.380Z,2.80
2022-09-15T09:51:31.974Z,2.55
2022-09-15T09:54:20.764Z,3.03
2022-09-15T09:57:32.659Z,3.13
2022-09-15T10:04:19.297Z,2.35
2022-09-15T10:07:05.934Z,2.75
2022-09-15T10:09:57.279Z,2.50
2022-09-15T10:12:45.189Z,2.53
2022-09-15T10:15:34.240Z,2.55
2022-09-15T10:18:34.576Z,2.65
2022-09-15T10:21:25.982Z,2.10
2022-09-15T10:24:32.742Z,2.25
2022-09-15T10:27:25.446Z,2.27
2022-09-15T10:30:16.128Z,3.05
2022-09-15T10:33:36.116Z,3.10
2022-09-15T10:36:28.783Z,2.65
2022-09-15T10:39:32.352Z,2.72
2022-09-15T10:42:46.891Z,3.40
2022-09-15T10:45:40.542Z,3.08
2022-09-15T10:48:59.200Z,2.40
2022-09-15T10:52:07.065Z,2.63
2022-09-15T10:55:13.939Z,2.80
2022-09-15T10:58:23.955Z,3.73
2022-09-15T11:01:25.874Z,2.72
2022-09-15T11:04:39.635Z,2.20
2022-09-15T11:07:58.963Z,2.15
2022-09-15T11:11:16.572Z,3.35
2022-09-15T11:14:19.292Z,2.87
2022-09-15T11:17:21.072Z,4.13
2022-09-15T11:20:46.034Z,4.30
2022-09-15T11:24:18.371Z,4.53
2022-09-15T11:28:21.044Z,5.22
2022-09-15T11:36:36.335Z,7.30
2022-09-15T11:40:09.842Z,19.30
2022-09-15T11:43:13.377Z,68.97
2022-09-15T11:46:29.589Z,45.63
2022-09-15T11:49:25.608Z,67.67
2022-09-15T11:52:22.404Z,60.00
2022-09-15T11:55:16.479Z,63.00
2022-09-15T11:58:22.151Z,37.72
2022-09-15T12:01:10.683Z,22.70
2022-09-15T12:03:58.737Z,42.87
2022-09-15T12:06:54.181Z,44.33
2022-09-15T12:09:39.185Z,49.80
2022-09-15T12:12:28.124Z,19.67
2022-09-15T12:15:18.847Z,16.10
2022-09-15T12:18:37.078Z,13.50
2022-09-15T12:21:39.089Z,10.23
2022-09-15T12:24:40.451Z,8.93
2022-09-15T12:27:26.090Z,8.73
2022-09-15T12:30:38.751Z,6.25
2022-09-15T12:33:42.298Z,5.47
2022-09-15T12:36:31.561Z,5.63
2022-09-15T12:39:29.072Z,4.78
2022-09-15T12:42:20.386Z,5.35
2022-09-15T12:45:20.886Z,5.72
2022-09-15T12:48:07.767Z,6.17
2022-09-15T12:50:55.796Z,4.93
2022-09-15T12:53:50.813Z,6.45
2022-09-15T12:56:35.975Z,6.97
2022-09-15T12:59:25.353Z,5.20
2022-09-15T13:02:43.678Z,4.70
2022-09-15T13:05:46.061Z,4.75
2022-09-15T13:08:31.293Z,4.70
2022-09-15T13:11:36.866Z,6.75
2022-09-15T13:14:33.727Z,6.35
2022-09-15T13:17:23.815Z,4.17
2022-09-15T13:20:16.729Z,4.88
2022-09-15T13:23:08.092Z,4.97
2022-09-15T13:25:57.120Z,4.95
2022-09-15T13:28:42.757Z,4.20
2022-09-15T13:31:38.856Z,5.10
2022-09-15T13:38:09.808Z,2.50
2022-09-15T13:41:23.415Z,6.43
2022-09-15T13:44:30.540Z,6.35
2022-09-15T13:47:33.879Z,4.53
2022-09-15T13:50:40.145Z,5.82
2022-09-15T13:54:02.061Z,16.73
2022-09-15T13:56:49.063Z,3.92
2022-09-15T13:59:34.799Z,3.50
2022-09-15T14:02:20.240Z,6.07
2022-09-15T14:05:08.534Z,3.20
2022-09-15T14:08:01.263Z,4.45
2022-09-15T14:11:03.266Z,6.25
2022-09-15T14:13:50.641Z,3.72
2022-09-15T14:16:37.873Z,5.53
2022-09-15T14:19:37.866Z,8.05
2022-09-15T14:22:28.746Z,6.20
2022-09-15T14:25:18.549Z,4.43
2022-09-15T14:28:05.643Z,4.32
2022-09-15T14:30:51.321Z,6.20
2022-09-15T14:33:39.181Z,4.60
2022-09-15T14:36:30.940Z,5.25
2022-09-15T14:39:22.283Z,6.32
2022-09-15T14:42:21.848Z,6.32
2022-09-15T14:48:16.773Z,4.70
2022-09-15T14:51:08.614Z,3.92
2022-09-15T14:53:57.778Z,9.07
2022-09-15T14:56:44.138Z,3.15
2022-09-15T14:59:37.976Z,4.47
2022-09-15T15:02:47.041Z,2.45
2022-09-15T15:05:54.682Z,6.72
2022-09-15T15:08:54.460Z,3.00
2022-09-15T15:11:41.775Z,3.58
2022-09-15T15:14:27.241Z,3.10
2022-09-15T15:17:29.517Z,2.65
2022-09-15T15:20:19.007Z,3.65
2022-09-15T15:23:13.645Z,3.45
2022-09-15T15:26:36.171Z,3.30
2022-09-15T15:29:45.362Z,3.13
2022-09-15T15:32:31.255Z,1.88
2022-09-15T15:35:17.975Z,2.50
2022-09-15T15:38:18.312Z,4.10
2022-09-15T15:41:10.852Z,3.67
2022-09-15T15:43:58.791Z,3.53
2022-09-15T15:46:54.774Z,2.40
2022-09-15T15:50:02.164Z,3.10
2022-09-15T15:52:45.218Z,4.57
2022-09-15T15:55:38.853Z,4.15
2022-09-15T15:58:24.119Z,3.90
2022-09-15T16:01:11.473Z,4.80
2022-09-15T16:03:56.676Z,4.45
2022-09-15T16:06:43.358Z,4.55
2022-09-15T16:09:28.306Z,3.83
2022-09-15T16:12:14.269Z,4.17
2022-09-15T16:14:59.623Z,5.55
2022-09-15T16:17:46.866Z,4.90
2022-09-15T16:20:32.601Z,2.72
2022-09-15T16:23:19.899Z,4.10
2022-09-15T16:26:05.535Z,2.90
2022-09-15T16:28:51.321Z,2.22
2022-09-15T16:31:37.631Z,3.90
2022-09-15T16:34:22.940Z,3.85
2022-09-15T16:37:08.158Z,3.90
2022-09-15T16:39:54.255Z,4.00
2022-09-15T16:42:39.379Z,2.88
2022-09-15T16:45:35.261Z,2.83
2022-09-15T16:48:23.382Z,3.85
2022-09-15T16:51:26.791Z,4.45
2022-09-15T16:54:17.754Z,3.50
2022-09-15T16:57:03.342Z,3.45
2022-09-15T16:59:48.929Z,3.05
2022-09-15T17:02:33.810Z,3.65
2022-09-15T17:05:28.174Z,3.17
2022-09-15T17:08:14.193Z,2.67
2022-09-15T17:11:01.548Z,3.70
2022-09-15T17:13:47.556Z,2.47
2022-09-15T17:16:32.876Z,3.25
2022-09-15T17:19:17.945Z,3.00
2022-09-15T17:22:03.506Z,4.27
2022-09-15T17:24:48.622Z,3.80
2022-09-15T17:27:33.541Z,6.15
2022-09-15T17:30:20.254Z,4.63
2022-09-15T17:33:10.358Z,3.17
2022-09-15T17:35:56.336Z,4.13
2022-09-15T17:38:41.848Z,4.68
2022-09-15T17:41:26.948Z,5.03
2022-09-15T17:44:12.005Z,6.70
2022-09-15T17:46:57.082Z,4.05
2022-09-15T17:49:42.499Z,3.63
2022-09-15T17:52:27.335Z,3.90
2022-09-15T17:55:12.559Z,4.95
2022-09-15T17:57:59.835Z,4.75
2022-09-15T18:00:45.907Z,4.35
2022-09-15T18:03:34.765Z,6.70
2022-09-15T18:06:20.044Z,4.45
2022-09-15T18:09:05.095Z,4.72
2022-09-15T18:11:49.962Z,4.25
2022-09-15T18:14:34.998Z,5.35
2022-09-15T18:17:20.144Z,6.03
2022-09-15T18:20:06.336Z,4.70
2022-09-15T18:22:51.700Z,4.90
2022-09-15T18:25:36.812Z,4.13
2022-09-15T18:28:22.046Z,5.28
2022-09-15T18:31:07.356Z,3.30
2022-09-15T18:33:52.932Z,4.95
2022-09-15T18:36:38.235Z,5.25
2022-09-15T18:39:23.402Z,6.10
2022-09-15T18:42:08.219Z,4.35
2022-09-15T18:44:53.027Z,3.10
2022-09-15T18:47:38.874Z,5.15
2022-09-15T18:50:25.175Z,5.13
2022-09-15T18:53:11.234Z,12.18
2022-09-15T18:55:56.027Z,9.38
2022-09-15T18:58:41.207Z,12.20
2022-09-15T19:01:26.627Z,12.93
2022-09-15T19:04:11.919Z,17.52
2022-09-15T19:06:56.981Z,19.70
2022-09-15T19:09:42.090Z,25.08
2022-09-15T19:12:27.068Z,36.77
2022-09-15T19:15:13.526Z,41.30
2022-09-15T19:17:58.854Z,54.22
2022-09-15T19:20:44.087Z,46.72
2022-09-15T19:23:29.389Z,34.53
2022-09-15T19:26:16.875Z,34.47
2022-09-15T19:29:04.080Z,35.30
2022-09-15T19:31:49.203Z,44.00
2022-09-15T19:34:35.557Z,36.63
2022-09-15T19:37:21.397Z,49.78
2022-09-15T19:40:09.580Z,50.10
2022-09-15T19:42:54.630Z,44.20
2022-09-15T19:45:43.464Z,43.15
2022-09-15T19:48:29.437Z,39.95
2022-09-15T19:51:15.840Z,39.03
2022-09-15T19:54:01.821Z,38.33
2022-09-15T19:56:48.146Z,36.20
2022-09-15T19:59:33.921Z,37.42
2022-09-15T20:02:19.925Z,37.30
2022-09-15T20:05:06.375Z,34.80
2022-09-15T20:07:53.378Z,34.60
2022-09-15T20:10:39.472Z,35.53
2022-09-15T20:13:24.412Z,34.58
2022-09-15T20:16:15.980Z,33.22
2022-09-15T20:19:03.083Z,33.70
2022-09-15T20:21:51.050Z,33.93
2022-09-15T20:24:36.626Z,34.05
2022-09-15T20:27:21.781Z,33.22
2022-09-15T20:30:07.795Z,32.88
2022-09-15T20:32:52.959Z,34.63
2022-09-15T20:35:38.050Z,34.60
2022-09-15T20:38:22.911Z,35.47
2022-09-15T20:41:10.386Z,33.92
2022-09-15T20:43:55.835Z,34.40
2022-09-15T20:46:41.211Z,33.00
2022-09-15T20:49:26.531Z,33.27
2022-09-15T20:52:11.684Z,32.42
2022-09-15T20:54:56.990Z,35.30
2022-09-15T20:57:42.107Z,34.25
2022-09-15T21:00:30.663Z,32.00
2022-09-15T21:03:19.582Z,34.83
2022-09-15T21:06:16.370Z,31.38
2022-09-15T21:09:01.593Z,32.45
2022-09-15T21:11:50.129Z,30.38
2022-09-15T21:14:38.233Z,33.83
2022-09-15T21:17:23.579Z,31.47
2022-09-15T21:20:09.398Z,31.83
2022-09-15T21:22:55.775Z,29.38
2022-09-15T21:25:40.683Z,33.15
2022-09-15T21:28:25.777Z,32.05
2022-09-15T21:31:15.910Z,28.10
2022-09-15T21:34:01.340Z,30.90
2022-09-15T21:36:46.432Z,27.27
2022-09-15T21:39:31.707Z,27.13
2022-09-15T21:42:17.427Z,28.60
2022-09-15T21:45:03.033Z,27.40
2022-09-15T21:47:48.257Z,23.73
2022-09-15T21:50:33.411Z,25.63
2022-09-15T21:53:20.182Z,25.80
2022-09-15T21:56:08.940Z,25.83
2022-09-15T21:58:54.524Z,27.73
2022-09-15T22:01:40.832Z,23.98
2022-09-15T22:04:25.872Z,21.65
2022-09-15T22:07:11.226Z,25.55
2022-09-15T22:09:56.339Z,23.98
2022-09-15T22:12:41.261Z,23.97
2022-09-15T22:15:26.195Z,22.70
2022-09-15T22:18:11.506Z,23.77
2022-09-15T22:21:09.126Z,21.58
2022-09-15T22:23:57.106Z,22.42
2022-09-15T22:26:43.378Z,19.87
2022-09-15T22:29:28.227Z,19.60
2022-09-15T22:32:13.013Z,20.05
2022-09-15T22:34:57.976Z,19.60
2022-09-15T22:37:42.842Z,17.40
2022-09-15T22:40:28.633Z,18.50
2022-09-15T22:43:13.875Z,17.17
2022-09-15T22:45:59.408Z,18.20
2022-09-15T22:48:45.401Z,17.85
2022-09-15T22:51:30.767Z,18.77
2022-09-15T22:54:16.748Z,19.27
2022-09-15T22:57:02.492Z,19.52
2022-09-15T22:59:47.765Z,19.88
2022-09-15T23:45:37.437Z,15.98
2022-09-15T23:48:23.444Z,15.57
2022-09-15T23:51:15.791Z,14.35
2022-09-15T23:54:11.437Z,15.52
2022-09-15T23:56:57.179Z,14.17
2022-09-15T23:59:47.731Z,14.88
